createdAt,value
2023-03-07T00:02:18.490Z,15.00
2023-03-07T00:04:46.740Z,19.00
2023-03-07T00:07:14.546Z,16.42
2023-03-07T00:09:42.213Z,16.05
2023-03-07T00:12:09.890Z,19.95
2023-03-07T00:14:37.338Z,19.67
2023-03-07T00:17:04.598Z,22.65
2023-03-07T00:19:31.919Z,19.92
2023-03-07T00:21:59.178Z,19.13
2023-03-07T00:24:26.472Z,18.27
2023-03-07T00:26:53.705Z,22.65
2023-03-07T00:29:20.984Z,12.32
2023-03-07T00:31:49.522Z,9.23
2023-03-07T00:34:16.778Z,8.60
2023-03-07T00:36:44.072Z,6.93
2023-03-07T00:39:11.388Z,7.03
2023-03-07T00:41:38.757Z,9.68
2023-03-07T00:44:06.049Z,6.22
2023-03-07T00:46:33.500Z,9.20
2023-03-07T00:49:00.798Z,7.28
2023-03-07T00:51:28.055Z,11.57
2023-03-07T00:53:55.441Z,12.25
2023-03-07T00:56:24.099Z,7.82
2023-03-07T00:58:51.973Z,8.95
2023-03-07T01:01:23.645Z,10.50
2023-03-07T01:03:53.649Z,14.25
2023-03-07T01:06:23.203Z,7.47
2023-03-07T01:11:18.470Z,10.27
2023-03-07T01:13:46.264Z,8.18
2023-03-07T01:16:24.674Z,9.73
2023-03-07T01:18:53.029Z,8.98
2023-03-07T01:21:20.891Z,9.00
2023-03-07T01:23:48.989Z,7.90
2023-03-07T01:26:17.566Z,11.57
2023-03-07T01:28:44.877Z,11.32
2023-03-07T01:31:12.354Z,8.35
2023-03-07T01:33:41.157Z,5.88
2023-03-07T01:36:19.435Z,11.18
2023-03-07T01:38:48.546Z,6.60
2023-03-07T01:41:16.486Z,11.00
2023-03-07T01:43:44.963Z,10.00
2023-03-07T01:46:18.986Z,12.05
2023-03-07T01:48:54.783Z,12.98
2023-03-07T01:51:22.819Z,8.60
2023-03-07T01:56:18.764Z,12.20
2023-03-07T01:58:46.663Z,9.80
2023-03-07T02:01:15.215Z,13.65
2023-03-07T02:03:48.079Z,6.53
2023-03-07T02:06:16.398Z,6.95
2023-03-07T02:08:44.286Z,9.20
2023-03-07T02:11:11.915Z,14.85
2023-03-07T02:13:39.692Z,6.70
2023-03-07T02:16:07.731Z,10.45
2023-03-07T02:18:36.900Z,7.63
2023-03-07T02:21:19.538Z,11.85
2023-03-07T02:24:05.652Z,11.00
2023-03-07T02:26:32.961Z,9.85
2023-03-07T02:29:00.694Z,7.10
2023-03-07T02:31:29.060Z,5.85
2023-03-07T02:33:56.374Z,11.77
2023-03-07T02:36:26.766Z,7.13
2023-03-07T02:39:15.061Z,9.30
2023-03-07T02:41:43.475Z,7.28
2023-03-07T02:44:19.553Z,10.85
2023-03-07T02:46:46.877Z,10.38
2023-03-07T02:49:14.405Z,8.77
2023-03-07T02:51:41.650Z,8.48
2023-03-07T02:54:09.133Z,7.32
2023-03-07T02:56:36.671Z,10.80
2023-03-07T02:59:04.004Z,9.10
2023-03-07T03:01:31.402Z,9.25
2023-03-07T03:03:58.746Z,6.72
2023-03-07T03:06:26.013Z,5.20
2023-03-07T03:08:53.308Z,11.40
2023-03-07T03:11:20.700Z,4.47
2023-03-07T03:13:48.137Z,10.80
2023-03-07T03:16:15.694Z,4.53
2023-03-07T03:18:43.570Z,4.88
2023-03-07T03:21:11.379Z,7.72
2023-03-07T03:23:39.198Z,6.53
2023-03-07T03:26:07.869Z,14.88
2023-03-07T03:28:36.014Z,7.00
2023-03-07T03:31:05.655Z,4.72
2023-03-07T03:33:33.413Z,5.43
2023-03-07T03:36:01.974Z,6.65
2023-03-07T03:38:29.306Z,9.05
2023-03-07T03:40:57.473Z,8.80
2023-03-07T03:43:24.768Z,4.80
2023-03-07T03:45:56.309Z,5.43
2023-03-07T03:48:25.118Z,10.32
2023-03-07T03:51:00.461Z,7.75
2023-03-07T03:53:27.759Z,12.43
2023-03-07T03:56:01.330Z,5.45
2023-03-07T03:58:28.578Z,10.75
2023-03-07T04:00:56.373Z,6.93
2023-03-07T04:03:23.735Z,5.75
2023-03-07T04:05:50.986Z,6.32
2023-03-07T04:08:18.278Z,3.90
2023-03-07T04:10:45.652Z,5.97
2023-03-07T04:13:13.040Z,5.20
2023-03-07T04:15:40.310Z,5.35
2023-03-07T04:18:07.592Z,9.65
2023-03-07T04:20:34.886Z,3.70
2023-03-07T04:23:02.511Z,5.50
2023-03-07T04:25:29.884Z,6.03
2023-03-07T04:27:57.338Z,5.00
2023-03-07T04:30:26.407Z,5.80
2023-03-07T04:32:53.729Z,4.28
2023-03-07T04:35:20.923Z,11.30
2023-03-07T04:37:48.133Z,2.10
2023-03-07T04:40:15.408Z,6.57
2023-03-07T04:42:42.628Z,8.90
2023-03-07T04:45:11.601Z,4.18
2023-03-07T04:47:38.854Z,5.43
2023-03-07T04:50:06.669Z,4.10
2023-03-07T04:52:35.943Z,5.28
2023-03-07T04:55:03.424Z,7.32
2023-03-07T04:57:30.779Z,6.82
2023-03-07T04:59:58.258Z,5.32
2023-03-07T05:02:25.838Z,4.38
2023-03-07T05:04:53.504Z,4.72
2023-03-07T05:07:21.463Z,1.35
2023-03-07T05:09:50.378Z,3.17
2023-03-07T05:12:17.771Z,1.42
2023-03-07T05:14:45.135Z,6.90
2023-03-07T05:17:12.423Z,6.00
2023-03-07T05:19:39.689Z,2.95
2023-03-07T05:22:07.540Z,6.40
2023-03-07T05:24:35.107Z,4.80
2023-03-07T05:27:03.432Z,5.75
2023-03-07T05:29:30.741Z,3.03
2023-03-07T05:31:58.919Z,3.10
2023-03-07T05:34:26.560Z,2.22
2023-03-07T05:36:54.147Z,4.45
2023-03-07T05:39:21.628Z,2.33
2023-03-07T05:41:49.344Z,3.28
2023-03-07T05:44:16.667Z,2.55
2023-03-07T05:46:44.133Z,3.53
2023-03-07T05:49:11.545Z,0.90
2023-03-07T05:51:38.802Z,3.40
2023-03-07T05:54:06.214Z,2.78
2023-03-07T05:56:34.918Z,1.05
2023-03-07T05:59:02.237Z,6.20
2023-03-07T06:01:29.838Z,5.55
2023-03-07T06:03:58.049Z,2.20
2023-03-07T06:06:25.337Z,2.15
2023-03-07T06:08:52.551Z,4.25
2023-03-07T06:11:19.806Z,3.35
2023-03-07T06:13:47.093Z,3.55
2023-03-07T06:16:14.443Z,2.58
2023-03-07T06:18:42.870Z,4.22
2023-03-07T06:21:11.366Z,2.95
2023-03-07T06:23:43.224Z,6.78
2023-03-07T06:26:13.617Z,3.47
2023-03-07T06:28:42.887Z,4.68
2023-03-07T06:31:12.556Z,2.75
2023-03-07T06:33:40.025Z,5.88
2023-03-07T06:36:11.531Z,2.95
2023-03-07T06:38:41.196Z,2.25
2023-03-07T06:41:08.911Z,2.17
2023-03-07T06:43:36.852Z,3.40
2023-03-07T06:46:05.010Z,5.18
2023-03-07T06:48:36.123Z,2.75
2023-03-07T06:51:10.160Z,3.30
2023-03-07T06:53:41.137Z,3.75
2023-03-07T06:56:09.004Z,2.47
2023-03-07T06:58:37.187Z,3.58
2023-03-07T07:01:04.782Z,4.53
2023-03-07T07:03:34.946Z,5.47
2023-03-07T07:06:03.618Z,3.45
2023-03-07T07:10:59.708Z,6.53
2023-03-07T07:13:27.993Z,4.13
2023-03-07T07:15:55.405Z,6.95
2023-03-07T07:18:24.657Z,7.32
2023-03-07T07:20:56.260Z,5.45
2023-03-07T07:23:26.414Z,4.38
2023-03-07T07:25:54.334Z,5.00
2023-03-07T07:28:21.709Z,2.97
2023-03-07T07:30:49.071Z,3.25
2023-03-07T07:33:17.047Z,3.35
2023-03-07T07:35:47.743Z,4.20
2023-03-07T07:38:15.776Z,6.75
2023-03-07T07:40:43.550Z,3.05
2023-03-07T07:43:15.065Z,8.68
2023-03-07T07:46:08.490Z,2.25
2023-03-07T07:48:35.823Z,4.13
2023-03-07T07:51:03.648Z,4.28
2023-03-07T07:53:31.798Z,8.90
2023-03-07T07:55:59.234Z,5.53
2023-03-07T07:58:26.772Z,6.65
2023-03-07T08:00:54.188Z,4.50
2023-03-07T08:03:21.793Z,4.25
2023-03-07T08:05:49.877Z,5.03
2023-03-07T08:08:17.746Z,3.22
2023-03-07T08:10:46.834Z,5.78
2023-03-07T08:13:14.797Z,4.63
2023-03-07T08:15:42.390Z,3.28
2023-03-07T08:18:13.523Z,6.15
2023-03-07T08:20:41.361Z,9.77
2023-03-07T08:23:08.664Z,8.25
2023-03-07T08:25:35.968Z,8.57
2023-03-07T08:28:05.308Z,9.07
2023-03-07T08:33:00.379Z,4.13
2023-03-07T08:35:28.323Z,5.00
2023-03-07T08:37:59.796Z,4.63
2023-03-07T08:40:27.877Z,6.28
2023-03-07T08:42:55.296Z,7.40
2023-03-07T08:45:25.702Z,7.88
2023-03-07T08:47:53.909Z,6.85
2023-03-07T08:50:25.955Z,3.45
2023-03-07T08:52:53.461Z,4.90
2023-03-07T08:55:20.907Z,5.05
2023-03-07T08:57:48.287Z,3.38
2023-03-07T09:00:15.876Z,7.10
2023-03-07T09:02:43.235Z,3.13
2023-03-07T09:05:10.517Z,5.50
2023-03-07T09:07:37.756Z,4.47
2023-03-07T09:10:05.946Z,7.90
2023-03-07T09:12:34.063Z,11.73
2023-03-07T09:15:01.272Z,6.60
2023-03-07T09:17:28.786Z,7.57
2023-03-07T09:19:56.638Z,5.47
2023-03-07T09:22:23.922Z,6.75
2023-03-07T09:24:51.193Z,7.90
2023-03-07T09:27:18.881Z,4.47
2023-03-07T09:29:47.551Z,4.20
2023-03-07T09:32:15.133Z,1.73
2023-03-07T09:34:42.445Z,6.63
2023-03-07T09:37:09.682Z,9.68
2023-03-07T09:39:36.901Z,7.40
2023-03-07T09:42:07.259Z,3.20
2023-03-07T09:44:43.100Z,7.05
2023-03-07T09:47:36.056Z,6.93
2023-03-07T09:50:04.028Z,4.28
2023-03-07T09:52:34.143Z,4.78
2023-03-07T09:55:02.481Z,4.60
2023-03-07T09:57:33.924Z,7.73
2023-03-07T10:00:04.036Z,3.00
2023-03-07T10:02:48.931Z,3.28
2023-03-07T10:05:19.711Z,4.25
2023-03-07T10:07:46.969Z,6.35
2023-03-07T10:10:23.165Z,4.32
2023-03-07T10:12:56.306Z,5.97
2023-03-07T10:15:23.602Z,6.93
2023-03-07T10:17:50.856Z,3.55
2023-03-07T10:20:18.189Z,5.68
2023-03-07T10:22:48.504Z,6.97
2023-03-07T10:25:30.557Z,5.90
2023-03-07T10:28:02.477Z,7.00
2023-03-07T10:30:32.433Z,2.17
2023-03-07T10:33:01.344Z,4.15
2023-03-07T10:35:41.324Z,3.88
2023-03-07T10:38:11.654Z,4.88
2023-03-07T10:40:49.777Z,5.40
2023-03-07T10:43:24.288Z,4.55
2023-03-07T10:45:54.593Z,5.00
2023-03-07T10:48:22.042Z,7.25
2023-03-07T10:50:56.100Z,3.83
2023-03-07T10:53:25.730Z,3.40
2023-03-07T10:55:53.125Z,2.85
2023-03-07T10:58:27.382Z,3.67
2023-03-07T11:01:02.251Z,3.30
2023-03-07T11:03:46.042Z,7.03
2023-03-07T11:06:36.171Z,3.63
2023-03-07T11:09:18.830Z,6.45
2023-03-07T11:12:08.854Z,6.50
2023-03-07T11:14:52.778Z,4.80
2023-03-07T11:17:24.292Z,2.63
2023-03-07T11:19:55.131Z,2.40
2023-03-07T11:22:24.818Z,3.22
2023-03-07T11:24:55.180Z,1.38
2023-03-07T11:27:23.620Z,1.75
2023-03-07T11:30:07.017Z,4.57
2023-03-07T11:32:36.840Z,2.22
2023-03-07T11:35:07.664Z,2.53
2023-03-07T11:37:49.885Z,2.28
2023-03-07T11:40:17.096Z,2.65
2023-03-07T11:42:52.920Z,1.75
2023-03-07T11:45:23.053Z,3.08
2023-03-07T11:48:00.964Z,3.90
2023-03-07T11:50:30.804Z,3.70
2023-03-07T11:53:00.792Z,2.03
2023-03-07T11:55:35.953Z,3.10
2023-03-07T11:58:22.371Z,3.58
2023-03-07T12:01:04.908Z,3.55
2023-03-07T12:03:45.697Z,4.88
2023-03-07T12:06:23.529Z,2.55
2023-03-07T12:09:06.165Z,3.42
2023-03-07T12:11:42.374Z,6.03
2023-03-07T12:14:24.834Z,6.13
2023-03-07T12:17:04.065Z,5.22
2023-03-07T12:22:18.432Z,3.35
2023-03-07T12:25:06.018Z,11.10
2023-03-07T12:27:39.263Z,5.88
2023-03-07T12:30:25.007Z,6.35
2023-03-07T12:32:53.266Z,3.53
2023-03-07T12:35:23.789Z,4.10
2023-03-07T12:37:51.006Z,2.10
2023-03-07T12:40:22.585Z,3.08
2023-03-07T12:42:54.310Z,4.70
2023-03-07T12:45:22.816Z,7.25
2023-03-07T12:48:09.620Z,9.18
2023-03-07T12:50:55.645Z,3.35
2023-03-07T12:53:25.730Z,3.88
2023-03-07T12:55:57.839Z,8.13
2023-03-07T12:58:25.080Z,3.83
2023-03-07T13:00:58.824Z,4.15
2023-03-07T13:03:45.533Z,7.55
2023-03-07T13:06:23.373Z,4.97
2023-03-07T13:08:52.257Z,3.45
2023-03-07T13:11:24.052Z,2.85
2023-03-07T13:13:53.064Z,5.38
2023-03-07T13:16:34.320Z,5.68
2023-03-07T13:19:20.267Z,4.65
2023-03-07T13:21:47.523Z,2.10
2023-03-07T13:24:34.646Z,4.07
2023-03-07T13:27:02.745Z,6.60
2023-03-07T13:29:48.944Z,2.15
2023-03-07T13:32:35.233Z,3.45
2023-03-07T13:35:03.674Z,2.60
2023-03-07T13:37:49.412Z,5.50
2023-03-07T13:40:28.822Z,3.72
2023-03-07T13:45:38.580Z,1.88
2023-03-07T13:48:09.475Z,6.82
2023-03-07T13:50:36.719Z,2.42
2023-03-07T13:53:08.829Z,4.40
2023-03-07T13:55:41.173Z,3.17
2023-03-07T13:58:21.062Z,2.95
2023-03-07T14:01:08.587Z,1.33
2023-03-07T14:03:37.988Z,2.22
2023-03-07T14:06:17.322Z,6.03
2023-03-07T14:11:21.271Z,3.70
2023-03-07T14:14:11.824Z,4.18
2023-03-07T14:16:55.445Z,5.88
2023-03-07T14:19:41.583Z,3.65
2023-03-07T14:22:18.601Z,3.97
2023-03-07T14:24:46.345Z,9.82
2023-03-07T14:27:15.299Z,3.65
2023-03-07T14:29:53.055Z,4.43
2023-03-07T14:32:28.452Z,4.05
2023-03-07T14:34:56.172Z,2.92
2023-03-07T14:37:27.445Z,3.17
2023-03-07T14:39:57.897Z,2.22
2023-03-07T14:42:25.092Z,2.97
2023-03-07T14:45:15.516Z,3.38
2023-03-07T14:47:58.049Z,3.63
2023-03-07T14:50:29.268Z,2.80
2023-03-07T14:53:15.454Z,4.85
2023-03-07T14:55:44.067Z,4.75
2023-03-07T14:58:19.268Z,3.28
2023-03-07T15:00:46.643Z,4.15
2023-03-07T15:03:14.950Z,6.07
2023-03-07T15:05:50.305Z,4.22
2023-03-07T15:08:22.990Z,3.47
2023-03-07T15:10:53.056Z,7.53
2023-03-07T15:13:36.842Z,5.57
2023-03-07T15:16:11.530Z,2.75
2023-03-07T15:18:38.802Z,4.22
2023-03-07T15:21:06.966Z,9.35
2023-03-07T15:23:34.467Z,3.30
2023-03-07T15:26:05.027Z,4.25
2023-03-07T15:28:34.682Z,3.53
2023-03-07T15:31:02.449Z,5.93
2023-03-07T15:33:31.333Z,6.18
2023-03-07T15:36:13.779Z,5.95
2023-03-07T15:38:42.524Z,2.47
2023-03-07T15:41:29.661Z,5.05
2023-03-07T15:44:12.180Z,2.75
2023-03-07T15:46:40.841Z,5.13
2023-03-07T15:49:17.973Z,4.18
2023-03-07T15:51:45.515Z,2.40
2023-03-07T15:54:33.437Z,2.28
2023-03-07T15:57:02.373Z,2.88
2023-03-07T15:59:31.611Z,2.88
2023-03-07T16:02:18.788Z,3.08
2023-03-07T16:04:46.130Z,2.17
2023-03-07T16:07:19.550Z,1.30
2023-03-07T16:09:46.777Z,1.85
2023-03-07T16:12:19.338Z,1.55
2023-03-07T16:14:48.288Z,1.13
2023-03-07T16:17:20.622Z,2.55
2023-03-07T16:19:47.978Z,4.32
2023-03-07T16:22:16.478Z,3.65
2023-03-07T16:24:43.780Z,2.35
2023-03-07T16:27:18.668Z,3.53
2023-03-07T16:29:46.006Z,5.00
2023-03-07T16:32:14.608Z,3.42
2023-03-07T16:34:44.273Z,3.97
2023-03-07T16:37:11.741Z,4.28
2023-03-07T16:39:38.993Z,2.80
2023-03-07T16:42:07.502Z,1.88
2023-03-07T16:44:39.247Z,2.97
2023-03-07T16:47:13.298Z,3.10
2023-03-07T16:49:40.673Z,5.43
2023-03-07T16:52:08.409Z,3.53
2023-03-07T16:54:35.602Z,5.55
2023-03-07T16:57:03.207Z,8.05
2023-03-07T16:59:37.410Z,6.20
2023-03-07T17:02:12.446Z,12.02
2023-03-07T17:04:39.761Z,1.67
2023-03-07T17:07:14.340Z,3.92
2023-03-07T17:09:41.661Z,5.50
2023-03-07T17:12:09.175Z,3.95
2023-03-07T17:14:36.593Z,3.40
2023-03-07T17:17:04.913Z,8.50
2023-03-07T17:19:33.042Z,1.92
2023-03-07T17:22:01.409Z,3.50
2023-03-07T17:24:29.234Z,5.53
2023-03-07T17:26:57.317Z,1.73
2023-03-07T17:29:29.200Z,2.85
2023-03-07T17:31:56.544Z,1.75
2023-03-07T17:34:31.115Z,2.88
2023-03-07T17:36:59.049Z,2.47
2023-03-07T17:39:27.701Z,1.15
2023-03-07T17:41:55.043Z,1.75
2023-03-07T17:44:22.352Z,3.88
2023-03-07T17:46:49.666Z,2.50
2023-03-07T17:49:16.922Z,2.50
2023-03-07T17:51:44.329Z,2.95
2023-03-07T17:54:11.677Z,5.50
2023-03-07T17:56:39.016Z,5.95
2023-03-07T17:59:06.348Z,3.22
2023-03-07T18:01:34.810Z,2.83
2023-03-07T18:04:03.948Z,2.20
2023-03-07T18:06:33.984Z,3.70
2023-03-07T18:09:01.850Z,5.38
2023-03-07T18:11:29.513Z,13.07
2023-03-07T18:13:56.865Z,8.75
2023-03-07T18:16:24.460Z,4.82
2023-03-07T18:18:59.379Z,3.08
2023-03-07T18:21:29.625Z,7.05
2023-03-07T18:23:57.464Z,3.92
2023-03-07T18:26:24.809Z,4.13
2023-03-07T18:28:56.459Z,4.78
2023-03-07T18:31:25.231Z,6.50
2023-03-07T18:33:53.447Z,2.28
2023-03-07T18:36:21.492Z,2.75
2023-03-07T18:38:49.002Z,2.90
2023-03-07T18:41:18.376Z,2.30
2023-03-07T18:46:14.451Z,3.22
2023-03-07T18:48:41.885Z,7.05
2023-03-07T18:51:10.681Z,3.40
2023-03-07T18:53:38.408Z,3.50
2023-03-07T18:56:07.092Z,4.00
2023-03-07T18:58:34.758Z,2.45
2023-03-07T19:01:14.646Z,4.40
2023-03-07T19:03:41.930Z,5.63
2023-03-07T19:06:09.733Z,9.38
2023-03-07T19:08:37.249Z,5.85
2023-03-07T19:11:08.904Z,5.40
2023-03-07T19:13:36.658Z,5.07
2023-03-07T19:16:05.414Z,4.00
2023-03-07T19:18:33.097Z,2.63
2023-03-07T19:21:00.426Z,3.90
2023-03-07T19:23:27.642Z,3.47
2023-03-07T19:25:55.133Z,3.60
2023-03-07T19:28:22.413Z,5.35
2023-03-07T19:30:49.693Z,7.63
2023-03-07T19:33:16.940Z,3.63
2023-03-07T19:35:44.284Z,2.67
2023-03-07T19:38:11.534Z,5.00
2023-03-07T19:40:38.795Z,5.57
2023-03-07T19:43:06.017Z,6.55
2023-03-07T19:45:33.402Z,5.43
2023-03-07T19:48:00.859Z,6.35
2023-03-07T19:50:28.123Z,6.32
2023-03-07T19:52:57.400Z,5.43
2023-03-07T19:57:51.868Z,7.05
2023-03-07T20:00:20.339Z,5.40
2023-03-07T20:02:47.778Z,6.30
2023-03-07T20:05:15.299Z,6.80
2023-03-07T20:07:42.692Z,4.25
2023-03-07T20:10:10.537Z,6.00
2023-03-07T20:12:38.034Z,3.38
2023-03-07T20:15:06.877Z,4.15
2023-03-07T20:17:34.284Z,4.25
2023-03-07T20:20:04.521Z,6.82
2023-03-07T20:22:32.033Z,10.90
2023-03-07T20:24:59.341Z,8.60
2023-03-07T20:27:27.052Z,7.22
2023-03-07T20:29:54.382Z,9.10
2023-03-07T20:32:21.950Z,8.07
2023-03-07T20:34:52.549Z,7.35
2023-03-07T20:37:20.102Z,8.15
2023-03-07T20:39:47.516Z,7.05
2023-03-07T20:42:15.000Z,5.85
2023-03-07T20:44:42.371Z,5.00
2023-03-07T20:47:09.862Z,5.93
2023-03-07T20:49:37.369Z,6.55
2023-03-07T20:52:04.869Z,5.82
2023-03-07T20:54:32.603Z,5.30
2023-03-07T20:57:00.080Z,6.40
2023-03-07T20:59:27.587Z,4.72
2023-03-07T21:01:55.597Z,4.50
2023-03-07T21:04:23.009Z,4.28
2023-03-07T21:06:50.480Z,5.82
2023-03-07T21:09:18.844Z,5.82
2023-03-07T21:11:47.567Z,5.60
2023-03-07T21:14:15.324Z,11.75
2023-03-07T21:16:43.893Z,4.80
2023-03-07T21:19:11.624Z,6.22
2023-03-07T21:21:39.451Z,5.78
2023-03-07T21:24:07.310Z,5.32
2023-03-07T21:26:38.402Z,5.72
2023-03-07T21:29:08.915Z,6.55
2023-03-07T21:31:36.747Z,6.15
2023-03-07T21:34:06.230Z,4.65
2023-03-07T21:36:34.148Z,5.97
2023-03-07T21:39:02.730Z,5.38
2023-03-07T21:41:30.126Z,5.80
2023-03-07T21:43:58.070Z,8.20
2023-03-07T21:46:25.963Z,7.88
2023-03-07T21:48:53.623Z,10.60
2023-03-07T21:51:21.215Z,5.78
2023-03-07T21:53:48.613Z,5.65
2023-03-07T21:56:17.278Z,8.10
2023-03-07T21:58:47.562Z,3.95
2023-03-07T22:01:19.914Z,4.80
2023-03-07T22:03:47.622Z,4.45
2023-03-07T22:06:16.797Z,4.35
2023-03-07T22:08:44.261Z,5.22
2023-03-07T22:11:12.531Z,5.22
2023-03-07T22:13:40.678Z,3.07
2023-03-07T22:16:13.287Z,5.78
2023-03-07T22:18:40.638Z,4.93
2023-03-07T22:21:13.619Z,8.48
2023-03-07T22:23:41.178Z,3.67
2023-03-07T22:26:09.368Z,3.58
2023-03-07T22:28:36.788Z,3.72
2023-03-07T22:31:08.889Z,6.10
2023-03-07T22:33:36.701Z,5.57
2023-03-07T22:36:05.937Z,6.05
2023-03-07T22:38:33.803Z,4.57
2023-03-07T22:41:08.873Z,6.10
2023-03-07T22:43:36.612Z,5.82
2023-03-07T22:46:04.124Z,3.33
2023-03-07T22:48:31.657Z,2.83
2023-03-07T22:50:59.149Z,4.50
2023-03-07T22:53:31.074Z,5.13
2023-03-07T22:56:02.291Z,5.50
2023-03-07T22:58:30.543Z,2.95
2023-03-07T23:01:06.953Z,3.67
2023-03-07T23:03:34.893Z,3.58
2023-03-07T23:06:02.347Z,3.47
2023-03-07T23:08:29.897Z,6.65
2023-03-07T23:11:01.291Z,3.05
2023-03-07T23:13:28.616Z,3.90
2023-03-07T23:15:56.086Z,4.45
2023-03-07T23:18:23.667Z,3.72
2023-03-07T23:20:51.021Z,4.45
2023-03-07T23:23:18.315Z,3.25
2023-03-07T23:25:45.699Z,6.10
2023-03-07T23:28:13.020Z,5.40
2023-03-07T23:30:40.840Z,3.95
2023-03-07T23:33:08.242Z,5.93
2023-03-07T23:35:36.143Z,4.53
2023-03-07T23:38:03.843Z,4.43
2023-03-07T23:40:31.231Z,6.78
2023-03-07T23:42:59.077Z,3.95
2023-03-07T23:45:26.557Z,3.70
2023-03-07T23:47:54.006Z,3.40
2023-03-07T23:50:21.556Z,3.33
2023-03-07T23:52:48.911Z,2.88
2023-03-07T23:55:16.623Z,4.30
2023-03-07T23:57:44.053Z,7.50
